createdAt,value
2019-04-07T00:00:17.225Z,88.30
2019-04-07T00:02:46.412Z,88.30
2019-04-07T00:05:15.444Z,88.60
2019-04-07T00:07:44.816Z,88.50
2019-04-07T00:10:14.276Z,89.00
2019-04-07T00:12:43.230Z,89.30
2019-04-07T00:15:12.168Z,89.40
2019-04-07T00:17:41.017Z,89.90
2019-04-07T00:20:10.018Z,90.00
2019-04-07T00:22:38.876Z,90.10
2019-04-07T00:25:07.821Z,90.10
2019-04-07T00:27:36.876Z,90.20
2019-04-07T00:30:07.618Z,90.20
2019-04-07T00:32:36.520Z,90.20
2019-04-07T00:35:07.147Z,90.10
2019-04-07T00:37:36.303Z,90.20
2019-04-07T00:40:07.143Z,90.40
2019-04-07T00:42:36.049Z,90.50
2019-04-07T00:45:06.314Z,90.60
2019-04-07T00:47:35.153Z,90.70
2019-04-07T00:50:04.858Z,90.50
2019-04-07T00:52:33.744Z,90.60
2019-04-07T00:55:02.550Z,90.60
2019-04-07T00:57:31.677Z,90.60
2019-04-07T01:00:00.584Z,90.80
2019-04-07T01:02:29.419Z,90.90
2019-04-07T01:04:58.422Z,91.00
2019-04-07T01:07:27.931Z,91.00
2019-04-07T01:09:57.357Z,90.90
2019-04-07T01:12:26.263Z,90.60
2019-04-07T01:14:55.393Z,90.80
2019-04-07T01:17:24.354Z,90.90
2019-04-07T01:19:53.579Z,91.30
2019-04-07T01:22:22.520Z,91.50
2019-04-07T01:24:51.787Z,91.40
2019-04-07T01:27:20.861Z,91.60
2019-04-07T01:29:49.684Z,91.70
2019-04-07T01:32:19.169Z,91.70
2019-04-07T01:34:48.134Z,91.70
2019-04-07T01:37:16.970Z,91.70
2019-04-07T01:39:45.869Z,91.30
2019-04-07T01:42:19.076Z,91.20
2019-04-07T01:45:06.116Z,90.60
2019-04-07T01:47:36.983Z,90.50
2019-04-07T01:50:15.186Z,90.70
2019-04-07T01:52:46.847Z,90.90
2019-04-07T01:55:20.371Z,91.00
2019-04-07T01:58:08.604Z,90.90
2019-04-07T02:03:20.740Z,91.10
2019-04-07T02:06:05.014Z,91.40
2019-04-07T02:08:35.349Z,91.40
2019-04-07T02:11:17.634Z,91.10
2019-04-07T02:13:48.293Z,91.30
2019-04-07T02:16:33.377Z,91.30
2019-04-07T02:19:09.729Z,91.30
2019-04-07T02:21:55.757Z,91.40
2019-04-07T02:24:29.073Z,91.40
2019-04-07T02:27:08.586Z,91.40
2019-04-07T02:29:45.048Z,91.60
2019-04-07T02:32:15.529Z,92.00
2019-04-07T02:35:04.323Z,92.10
2019-04-07T02:37:38.628Z,92.10
2019-04-07T02:40:15.435Z,92.20
2019-04-07T02:42:58.853Z,92.50
2019-04-07T02:45:32.293Z,92.80
2019-04-07T02:48:20.969Z,92.80
2019-04-07T02:51:08.087Z,92.70
2019-04-07T02:53:39.175Z,92.60
2019-04-07T02:56:13.335Z,92.50
2019-04-07T02:59:02.360Z,92.50
2019-04-07T03:01:33.095Z,92.50
2019-04-07T03:04:12.601Z,92.40
2019-04-07T03:06:52.888Z,92.50
2019-04-07T03:09:37.869Z,92.50
2019-04-07T03:12:08.318Z,92.60
2019-04-07T03:14:47.856Z,92.70
2019-04-07T03:17:37.459Z,92.80
2019-04-07T03:20:18.784Z,92.80
2019-04-07T03:23:02.181Z,92.80
2019-04-07T03:25:45.289Z,92.30
2019-04-07T03:28:16.143Z,92.40
2019-04-07T03:30:59.218Z,92.10
2019-04-07T03:33:49.885Z,92.00
2019-04-07T03:37:09.707Z,91.80
2019-04-07T03:39:19.130Z,91.70
2019-04-07T03:42:01.700Z,91.90
2019-04-07T03:44:34.899Z,92.10
2019-04-07T03:47:05.345Z,92.30
2019-04-07T03:49:39.423Z,92.40
2019-04-07T03:52:26.823Z,92.60
2019-04-07T03:55:09.522Z,92.70
2019-04-07T03:57:46.345Z,92.80
2019-04-07T04:00:42.267Z,93.00
2019-04-07T04:03:12.896Z,93.00
2019-04-07T04:05:43.522Z,93.00
2019-04-07T04:08:14.093Z,92.80
2019-04-07T04:10:47.136Z,92.80
2019-04-07T04:13:30.571Z,92.90
2019-04-07T04:16:01.245Z,93.00
2019-04-07T04:18:30.968Z,92.70
2019-04-07T04:20:59.903Z,92.60
2019-04-07T04:23:28.796Z,92.50
2019-04-07T04:25:57.636Z,92.20
2019-04-07T04:28:27.368Z,92.10
2019-04-07T04:30:56.715Z,92.40
2019-04-07T04:33:25.704Z,92.50
2019-04-07T04:35:54.552Z,92.10
2019-04-07T04:38:24.202Z,92.20
2019-04-07T04:40:53.224Z,92.30
2019-04-07T04:43:22.090Z,92.30
2019-04-07T04:45:50.981Z,92.40
2019-04-07T04:48:19.850Z,91.70
2019-04-07T04:50:49.163Z,91.70
2019-04-07T04:53:18.403Z,91.80
2019-04-07T04:55:47.417Z,91.40
2019-04-07T04:58:16.256Z,91.40
2019-04-07T05:00:45.171Z,91.50
2019-04-07T05:03:14.016Z,91.60
2019-04-07T05:05:43.165Z,91.50
2019-04-07T05:08:12.903Z,91.30
2019-04-07T05:10:41.899Z,91.30
2019-04-07T05:13:10.857Z,91.40
2019-04-07T05:15:39.953Z,91.50
2019-04-07T05:18:08.868Z,91.20
2019-04-07T05:20:37.727Z,90.80
2019-04-07T05:23:06.675Z,90.50
2019-04-07T05:25:36.129Z,90.90
2019-04-07T05:28:05.809Z,90.80
2019-04-07T05:30:34.752Z,90.90
2019-04-07T05:33:03.593Z,90.70
2019-04-07T05:35:32.920Z,90.40
2019-04-07T05:38:04.930Z,90.20
2019-04-07T05:40:33.334Z,90.10
2019-04-07T05:43:02.164Z,90.30
2019-04-07T05:45:31.544Z,90.30
2019-04-07T05:48:00.539Z,90.40
2019-04-07T05:50:29.672Z,90.20
2019-04-07T05:52:58.796Z,90.10
2019-04-07T05:55:28.098Z,90.00
2019-04-07T05:57:57.568Z,90.00
2019-04-07T06:00:26.550Z,90.00
2019-04-07T06:02:55.982Z,90.10
2019-04-07T06:05:25.462Z,90.30
2019-04-07T06:07:54.404Z,90.10
2019-04-07T06:10:26.599Z,89.60
2019-04-07T06:12:54.120Z,89.90
2019-04-07T06:15:23.309Z,88.30
2019-04-07T06:17:52.274Z,87.80
2019-04-07T06:20:21.124Z,87.80
2019-04-07T06:22:53.020Z,87.70
2019-04-07T06:25:20.849Z,87.30
2019-04-07T06:27:50.115Z,87.00
2019-04-07T06:30:19.971Z,86.90
2019-04-07T06:32:48.836Z,86.60
2019-04-07T06:35:18.248Z,86.50
2019-04-07T06:37:47.651Z,86.80
2019-04-07T06:40:20.351Z,86.60
2019-04-07T06:42:48.791Z,86.30
2019-04-07T06:45:21.819Z,86.20
2019-04-07T06:47:51.858Z,85.60
2019-04-07T06:50:25.866Z,84.70
2019-04-07T06:53:17.320Z,83.80
2019-04-07T06:56:01.816Z,83.20
2019-04-07T06:58:49.204Z,82.10
2019-04-07T07:01:29.666Z,81.00
2019-04-07T07:04:16.751Z,81.60
2019-04-07T07:06:51.397Z,81.10
2019-04-07T07:09:31.839Z,80.60
2019-04-07T07:12:06.120Z,77.20
2019-04-07T07:14:44.361Z,75.50
2019-04-07T07:17:19.544Z,75.60
2019-04-07T07:19:57.247Z,72.50
2019-04-07T07:22:28.576Z,73.10
2019-04-07T07:24:59.862Z,73.90
2019-04-07T07:27:28.013Z,76.20
2019-04-07T07:29:57.766Z,72.70
2019-04-07T07:32:26.884Z,72.40
2019-04-07T07:34:55.725Z,71.70
2019-04-07T07:37:25.285Z,72.80
2019-04-07T07:39:55.373Z,74.60
2019-04-07T07:42:24.537Z,71.00
2019-04-07T07:44:53.562Z,71.90
2019-04-07T07:47:23.010Z,71.80
2019-04-07T07:49:52.049Z,72.10
2019-04-07T07:52:23.251Z,71.20
2019-04-07T07:54:55.116Z,73.00
2019-04-07T07:57:30.542Z,72.40
2019-04-07T07:59:59.736Z,72.30
2019-04-07T08:02:31.088Z,73.20
2019-04-07T08:05:00.595Z,71.90
2019-04-07T08:07:30.197Z,71.60
2019-04-07T08:09:59.616Z,70.90
2019-04-07T08:12:32.372Z,70.60
2019-04-07T08:14:59.156Z,71.00
2019-04-07T08:17:31.634Z,69.90
2019-04-07T08:19:58.828Z,69.20
2019-04-07T08:22:33.937Z,69.90
2019-04-07T08:24:58.795Z,69.60
2019-04-07T08:27:31.031Z,71.30
2019-04-07T08:29:58.393Z,67.30
2019-04-07T08:32:30.791Z,62.90
2019-04-07T08:35:02.731Z,64.30
2019-04-07T08:37:29.631Z,67.70
2019-04-07T08:39:59.393Z,66.00
2019-04-07T08:42:28.440Z,64.80
2019-04-07T08:44:59.476Z,64.70
2019-04-07T08:47:31.296Z,64.10
2019-04-07T08:50:00.126Z,63.50
2019-04-07T08:52:29.013Z,61.60
2019-04-07T08:54:58.015Z,62.10
2019-04-07T08:57:29.392Z,62.20
2019-04-07T08:59:57.538Z,62.70
2019-04-07T09:02:29.286Z,64.00
2019-04-07T09:04:57.441Z,58.20
2019-04-07T09:07:26.636Z,47.50
2019-04-07T09:09:55.595Z,40.90
2019-04-07T09:12:27.455Z,39.40
2019-04-07T09:14:55.620Z,37.50
2019-04-07T09:17:43.667Z,35.60
2019-04-07T09:20:11.004Z,34.30
2019-04-07T09:22:42.077Z,34.10
2019-04-07T09:25:19.360Z,34.10
2019-04-07T09:28:06.416Z,33.40
2019-04-07T09:30:53.662Z,32.90
2019-04-07T09:33:24.361Z,33.30
2019-04-07T09:36:00.722Z,35.50
2019-04-07T09:38:50.021Z,33.00
2019-04-07T09:41:29.682Z,30.60
2019-04-07T09:44:10.273Z,30.50
2019-04-07T09:46:59.589Z,29.60
2019-04-07T09:49:30.919Z,28.30
2019-04-07T09:52:17.876Z,28.70
2019-04-07T09:55:01.152Z,27.90
2019-04-07T09:57:43.742Z,29.00
2019-04-07T10:00:21.645Z,28.70
2019-04-07T10:03:12.698Z,29.00
2019-04-07T10:05:43.734Z,28.50
2019-04-07T10:08:26.516Z,29.40
2019-04-07T10:11:14.983Z,30.20
2019-04-07T10:13:47.949Z,29.40
2019-04-07T10:16:21.154Z,29.30
2019-04-07T10:18:52.202Z,28.70
2019-04-07T10:21:25.446Z,29.10
2019-04-07T10:23:56.351Z,30.40
2019-04-07T10:26:30.244Z,32.80
2019-04-07T10:29:07.147Z,34.00
2019-04-07T10:31:40.927Z,36.00
2019-04-07T10:34:29.544Z,36.70
2019-04-07T10:37:08.980Z,35.80
2019-04-07T10:39:59.358Z,37.50
2019-04-07T10:42:35.881Z,37.10
2019-04-07T10:45:09.099Z,37.50
2019-04-07T10:47:48.769Z,37.30
2019-04-07T10:50:35.756Z,36.80
2019-04-07T10:53:22.829Z,37.10
2019-04-07T10:55:56.415Z,37.00
2019-04-07T10:58:27.861Z,36.80
2019-04-07T11:00:58.690Z,36.70
2019-04-07T11:03:48.685Z,37.40
2019-04-07T11:06:24.879Z,37.30
2019-04-07T11:09:11.585Z,36.70
2019-04-07T11:11:54.257Z,37.30
2019-04-07T11:14:28.304Z,37.80
2019-04-07T11:17:00.226Z,38.00
2019-04-07T11:19:46.108Z,37.90
2019-04-07T11:22:33.765Z,37.70
2019-04-07T11:25:05.417Z,37.60
2019-04-07T11:27:45.225Z,38.00
2019-04-07T11:30:16.946Z,37.90
2019-04-07T11:33:03.492Z,37.90
2019-04-07T11:35:34.586Z,37.70
2019-04-07T11:38:05.802Z,38.40
2019-04-07T11:40:42.561Z,38.10
2019-04-07T11:43:08.768Z,38.30
2019-04-07T11:45:56.065Z,39.80
2019-04-07T11:48:21.001Z,39.50
2019-04-07T11:50:52.205Z,38.90
2019-04-07T11:53:23.194Z,38.50
2019-04-07T11:56:03.406Z,38.30
2019-04-07T11:58:37.631Z,37.90
2019-04-07T12:01:24.004Z,38.00
2019-04-07T12:03:55.079Z,38.60
2019-04-07T12:06:46.672Z,38.70
2019-04-07T12:09:20.727Z,38.90
2019-04-07T12:11:52.640Z,39.10
2019-04-07T12:14:28.930Z,38.80
2019-04-07T12:17:16.686Z,39.20
2019-04-07T12:19:55.123Z,39.90
2019-04-07T12:22:26.079Z,40.30
2019-04-07T12:25:13.119Z,40.30
2019-04-07T12:27:55.890Z,41.00
2019-04-07T12:30:41.491Z,41.70
2019-04-07T12:33:23.191Z,42.30
2019-04-07T12:35:56.328Z,43.10
2019-04-07T12:38:45.029Z,43.70
2019-04-07T12:41:21.999Z,44.80
2019-04-07T12:44:06.088Z,45.60
2019-04-07T12:46:36.825Z,45.80
2019-04-07T12:49:10.927Z,46.00
2019-04-07T12:51:57.924Z,46.60
2019-04-07T12:54:34.325Z,47.00
2019-04-07T12:57:10.604Z,47.50
2019-04-07T12:59:41.211Z,47.80
2019-04-07T13:02:17.929Z,50.70
2019-04-07T13:04:46.957Z,54.10
2019-04-07T13:07:20.437Z,57.40
2019-04-07T13:09:49.450Z,61.30
2019-04-07T13:12:32.199Z,64.10
2019-04-07T13:15:19.451Z,67.80
2019-04-07T13:18:07.719Z,69.20
2019-04-07T13:20:53.516Z,71.80
2019-04-07T13:23:37.042Z,72.60
2019-04-07T13:26:30.241Z,73.40
2019-04-07T13:29:04.246Z,72.30
2019-04-07T13:31:48.076Z,73.20
2019-04-07T13:34:33.808Z,73.70
2019-04-07T13:37:04.583Z,71.30
2019-04-07T13:39:40.698Z,68.20
2019-04-07T13:42:16.469Z,69.40
2019-04-07T13:44:47.025Z,69.80
2019-04-07T13:47:26.783Z,71.10
2019-04-07T13:50:00.687Z,72.10
2019-04-07T13:52:52.788Z,74.00
2019-04-07T13:55:20.745Z,71.60
2019-04-07T13:57:55.624Z,76.80
2019-04-07T14:00:39.623Z,76.90
2019-04-07T14:03:10.183Z,75.00
2019-04-07T14:05:41.124Z,77.60
2019-04-07T14:08:17.883Z,78.90
2019-04-07T14:10:58.201Z,80.10
2019-04-07T14:13:42.610Z,80.50
2019-04-07T14:16:16.066Z,77.90
2019-04-07T14:18:53.075Z,78.40
2019-04-07T14:21:32.302Z,79.00
2019-04-07T14:24:03.632Z,80.40
2019-04-07T14:26:41.222Z,78.80
2019-04-07T14:29:12.004Z,77.30
2019-04-07T14:31:48.045Z,75.60
2019-04-07T14:34:27.672Z,75.20
2019-04-07T14:37:07.357Z,74.70
2019-04-07T14:39:40.510Z,75.60
2019-04-07T14:42:11.957Z,73.40
2019-04-07T14:44:42.447Z,71.50
2019-04-07T14:47:19.828Z,71.30
2019-04-07T14:49:59.176Z,71.30
2019-04-07T14:52:38.437Z,72.40
2019-04-07T14:55:11.841Z,71.20
2019-04-07T14:57:43.682Z,71.00
2019-04-07T15:00:21.604Z,70.30
2019-04-07T15:02:51.298Z,69.20
2019-04-07T15:05:25.437Z,68.60
2019-04-07T15:07:59.501Z,67.60
2019-04-07T15:10:28.312Z,65.80
2019-04-07T15:13:05.334Z,67.20
2019-04-07T15:15:34.317Z,68.10
2019-04-07T15:18:03.760Z,70.30
2019-04-07T15:20:32.797Z,72.00
2019-04-07T15:23:01.919Z,72.30
2019-04-07T15:25:31.712Z,72.60
2019-04-07T15:28:01.310Z,71.90
2019-04-07T15:30:31.091Z,73.20
2019-04-07T15:33:02.435Z,73.70
2019-04-07T15:35:30.622Z,72.90
2019-04-07T15:37:59.501Z,73.00
2019-04-07T15:40:28.361Z,74.40
2019-04-07T15:43:01.484Z,74.80
2019-04-07T15:45:28.719Z,75.70
2019-04-07T15:47:59.246Z,76.10
2019-04-07T15:50:30.206Z,76.30
2019-04-07T15:52:59.514Z,76.20
2019-04-07T15:55:43.287Z,75.60
2019-04-07T15:57:59.674Z,73.30
2019-04-07T16:00:32.366Z,71.80
2019-04-07T16:03:00.025Z,71.30
2019-04-07T16:05:29.991Z,71.10
2019-04-07T16:08:01.020Z,72.20
2019-04-07T16:10:30.171Z,73.10
2019-04-07T16:12:59.548Z,74.30
2019-04-07T16:15:29.484Z,74.90
2019-04-07T16:17:58.808Z,75.50
2019-04-07T16:20:32.334Z,75.00
2019-04-07T16:22:58.419Z,75.50
2019-04-07T16:25:28.231Z,76.10
2019-04-07T16:27:58.692Z,75.80
2019-04-07T16:30:27.692Z,75.70
2019-04-07T16:33:00.570Z,76.00
2019-04-07T16:35:27.818Z,76.50
2019-04-07T16:37:58.370Z,76.90
2019-04-07T16:40:28.042Z,76.80
2019-04-07T16:43:09.233Z,77.10
2019-04-07T16:45:28.273Z,77.50
2019-04-07T16:47:57.788Z,77.50
2019-04-07T16:50:27.248Z,77.60
2019-04-07T16:52:57.480Z,77.90
2019-04-07T16:55:34.934Z,77.50
2019-04-07T16:58:04.033Z,77.50
2019-04-07T17:00:32.911Z,77.80
2019-04-07T17:03:02.465Z,77.60
2019-04-07T17:05:32.213Z,77.60
2019-04-07T17:08:01.734Z,78.00
2019-04-07T17:10:33.890Z,78.40
2019-04-07T17:13:05.433Z,79.20
2019-04-07T17:15:34.830Z,80.30
2019-04-07T17:18:02.891Z,79.90
2019-04-07T17:20:35.985Z,80.00
2019-04-07T17:23:02.333Z,82.10
2019-04-07T17:25:32.895Z,83.50
2019-04-07T17:28:03.772Z,85.60
2019-04-07T17:30:32.251Z,87.70
2019-04-07T17:33:03.283Z,87.00
2019-04-07T17:35:31.736Z,87.90
2019-04-07T17:38:04.064Z,88.20
2019-04-07T17:40:33.777Z,88.30
2019-04-07T17:43:25.661Z,90.20
2019-04-07T17:45:58.320Z,90.70
2019-04-07T17:48:38.718Z,91.80
2019-04-07T17:51:08.754Z,91.50
2019-04-07T17:53:55.101Z,90.90
2019-04-07T17:56:30.220Z,91.00
2019-04-07T17:59:04.430Z,90.90
2019-04-07T18:01:41.049Z,90.70
2019-04-07T18:04:14.632Z,90.50
2019-04-07T18:06:47.621Z,90.70
2019-04-07T18:09:37.255Z,90.90
2019-04-07T18:12:14.051Z,90.40
2019-04-07T18:15:03.574Z,90.20
2019-04-07T18:17:46.129Z,90.30
2019-04-07T18:20:33.825Z,90.20
2019-04-07T18:23:04.436Z,90.50
2019-04-07T18:25:47.888Z,90.70
2019-04-07T18:28:24.667Z,90.70
2019-04-07T18:31:06.774Z,91.00
2019-04-07T18:33:53.702Z,91.10
2019-04-07T18:36:34.725Z,91.50
2019-04-07T18:39:23.021Z,91.60
2019-04-07T18:42:11.447Z,92.20
2019-04-07T18:44:59.528Z,91.40
2019-04-07T18:47:37.009Z,91.90
2019-04-07T18:50:27.462Z,91.80
2019-04-07T18:53:01.586Z,92.10
2019-04-07T18:55:33.283Z,92.40
2019-04-07T18:58:07.527Z,92.90
2019-04-07T19:00:48.241Z,93.10
2019-04-07T19:03:24.764Z,93.20
2019-04-07T19:05:56.525Z,93.40
2019-04-07T19:08:39.250Z,93.30
2019-04-07T19:11:16.579Z,94.80
2019-04-07T19:14:12.878Z,95.00
2019-04-07T19:16:42.022Z,93.40
2019-04-07T19:19:18.037Z,91.90
2019-04-07T19:22:06.700Z,92.30
2019-04-07T19:24:46.307Z,93.60
2019-04-07T19:27:33.268Z,92.70
2019-04-07T19:30:06.682Z,92.50
2019-04-07T19:32:37.442Z,91.20
2019-04-07T19:35:08.891Z,92.00
2019-04-07T19:37:47.426Z,92.50
2019-04-07T19:40:27.703Z,92.80
2019-04-07T19:43:13.328Z,92.60
2019-04-07T19:45:50.116Z,93.10
2019-04-07T19:48:40.556Z,93.10
2019-04-07T19:51:15.465Z,93.20
2019-04-07T19:53:52.071Z,93.30
2019-04-07T19:56:39.333Z,93.30
2019-04-07T19:59:28.189Z,94.10
2019-04-07T20:02:00.673Z,93.80
2019-04-07T20:04:37.343Z,94.50
2019-04-07T20:07:07.930Z,94.60
2019-04-07T20:09:50.484Z,94.80
2019-04-07T20:12:34.676Z,94.90
2019-04-07T20:15:13.989Z,94.70
2019-04-07T20:17:43.551Z,94.60
2019-04-07T20:20:17.518Z,94.60
2019-04-07T20:22:47.916Z,94.70
2019-04-07T20:25:20.195Z,94.80
2019-04-07T20:27:51.239Z,94.80
2019-04-07T20:30:35.501Z,95.20
2019-04-07T20:33:08.349Z,95.00
2019-04-07T20:35:55.507Z,95.20
2019-04-07T20:38:30.189Z,94.90
2019-04-07T20:41:11.819Z,95.40
2019-04-07T20:44:01.183Z,95.60
2019-04-07T20:46:31.716Z,95.60
2019-04-07T20:49:18.704Z,95.40
2019-04-07T20:52:01.219Z,95.50
2019-04-07T20:54:35.172Z,95.80
2019-04-07T20:57:03.799Z,95.90
2019-04-07T20:59:50.125Z,95.70
2019-04-07T21:02:33.741Z,95.60
2019-04-07T21:05:04.587Z,95.30
2019-04-07T21:07:35.487Z,95.20
2019-04-07T21:10:09.858Z,95.00
2019-04-07T21:12:55.036Z,95.20
2019-04-07T21:15:30.587Z,94.80
2019-04-07T21:18:00.674Z,94.70
2019-04-07T21:20:38.902Z,94.90
2019-04-07T21:23:21.466Z,95.10
2019-04-07T21:25:55.483Z,95.30
2019-04-07T21:28:35.182Z,95.50
2019-04-07T21:31:08.102Z,96.10
2019-04-07T21:33:55.811Z,96.90
2019-04-07T21:36:32.219Z,96.70
2019-04-07T21:39:08.753Z,96.60
2019-04-07T21:41:45.542Z,96.70
2019-04-07T21:44:35.765Z,97.00
2019-04-07T21:47:06.407Z,96.70
2019-04-07T21:49:53.591Z,96.60
2019-04-07T21:52:38.955Z,96.60
2019-04-07T21:55:27.342Z,96.50
2019-04-07T21:57:58.766Z,96.70
2019-04-07T22:00:39.150Z,97.20
2019-04-07T22:03:11.417Z,97.30
2019-04-07T22:05:57.117Z,97.00
2019-04-07T22:08:34.777Z,97.10
2019-04-07T22:11:03.679Z,97.30
2019-04-07T22:13:34.596Z,97.40
2019-04-07T22:16:04.214Z,97.70
2019-04-07T22:18:33.167Z,97.20
2019-04-07T22:21:02.034Z,97.50
2019-04-07T22:23:31.807Z,97.60
2019-04-07T22:26:02.270Z,97.80
2019-04-07T22:28:31.792Z,97.70
2019-04-07T22:31:01.495Z,97.30
2019-04-07T22:33:32.414Z,97.00
2019-04-07T22:36:01.796Z,96.90
2019-04-07T22:38:31.523Z,97.10
2019-04-07T22:41:00.637Z,97.20
2019-04-07T22:43:29.552Z,97.30
2019-04-07T22:46:07.814Z,97.00
2019-04-07T22:48:29.495Z,96.80
2019-04-07T22:50:58.882Z,96.60
2019-04-07T22:53:30.918Z,96.90
2019-04-07T22:55:59.106Z,96.80
2019-04-07T22:58:28.157Z,96.80
